Time;durP1;ratioP1;P1;durP2;ratioP2;P2;SDS_P1;SDS_P2;PMS_P1;PMS_P2;Temp;Humidity;BMP_temperature;BMP_pressure;BME280_temperature;BME280_humidity;BME280_pressure;Samples;Min_cycle;Max_cycle;Signal;HPM_P1;HPM_P2
2022/06/27 00:00:08;;;;;;;0.85;0.50;;;21.00;65.20;;;;;;6214803;23;20068;-73
2022/06/27 00:02:33;;;;;;;2.15;0.40;;;21.00;65.10;;;;;;6163875;23;20001;-73
2022/06/27 00:04:59;;;;;;;5.65;0.60;;;21.00;65.20;;;;;;6187874;23;20007;-72
2022/06/27 00:07:24;;;;;;;1.23;0.50;;;21.00;65.10;;;;;;6163471;23;20007;-73
2022/06/27 00:09:50;;;;;;;3.13;0.52;;;21.00;65.20;;;;;;6188174;23;20357;-73
2022/06/27 00:12:16;;;;;;;1.48;0.60;;;21.00;65.10;;;;;;6214414;23;20007;-73
2022/06/27 00:14:41;;;;;;;0.85;0.35;;;21.00;65.10;;;;;;6214798;23;20004;-73
2022/06/27 00:17:07;;;;;;;1.83;0.52;;;21.10;65.20;;;;;;6214259;23;20058;-72
2022/06/27 00:19:32;;;;;;;1.05;0.32;;;21.00;65.20;;;;;;6214280;23;20329;-72
2022/06/27 00:21:58;;;;;;;1.05;0.30;;;21.00;65.20;;;;;;6214733;23;20003;-73
2022/06/27 00:24:24;;;;;;;1.42;0.60;;;21.00;65.10;;;;;;6187885;23;20005;-72
2022/06/27 00:26:50;;;;;;;2.28;0.50;;;21.00;65.20;;;;;;6188209;23;20382;-72
2022/06/27 00:29:15;;;;;;;1.00;0.50;;;21.00;65.20;;;;;;6214410;23;20088;-72
2022/06/27 00:31:41;;;;;;;1.67;0.30;;;21.00;65.20;;;;;;6163244;23;20050;-73
2022/06/27 00:34:07;;;;;;;2.70;0.52;;;21.00;65.20;;;;;;6187921;23;20011;-72
2022/06/27 00:36:32;;;;;;;3.55;0.40;;;21.00;65.20;;;;;;6213964;23;20469;-73
2022/06/27 00:38:58;;;;;;;3.85;0.57;;;21.00;65.20;;;;;;6138421;23;20000;-73
2022/06/27 00:41:24;;;;;;;2.25;0.40;;;21.00;65.20;;;;;;6187864;23;20000;-73
2022/06/27 00:43:50;;;;;;;0.65;0.35;;;21.00;65.20;;;;;;6214421;23;20000;-73
2022/06/27 00:46:15;;;;;;;5.10;0.68;;;21.00;65.20;;;;;;6187930;23;20380;-73
2022/06/27 00:48:41;;;;;;;0.73;0.40;;;21.00;65.30;;;;;;6187744;23;20023;-73
2022/06/27 00:51:06;;;;;;;1.42;0.50;;;21.00;65.20;;;;;;6214348;23;20005;-73
2022/06/27 00:53:35;;;;;;;3.60;0.55;;;21.00;65.20;;;;;;6214253;23;20004;-73
2022/06/27 00:56:01;;;;;;;1.88;0.60;;;21.00;65.20;;;;;;6163070;23;20463;-73
2022/06/27 00:58:26;;;;;;;1.33;0.40;;;21.00;65.60;;;;;;6187918;23;20071;-73
2022/06/27 01:00:52;;;;;;;0.38;0.30;;;21.00;65.20;;;;;;6187843;23;20420;-73
2022/06/27 01:03:18;;;;;;;1.65;0.40;;;21.00;65.20;;;;;;6214189;23;20003;-73
2022/06/27 01:05:51;;;;;;;1.58;0.52;;;21.00;65.20;;;;;;6187855;23;20005;-73
2022/06/27 01:08:25;;;;;;;1.95;0.50;;;21.00;65.20;;;;;;6166164;23;20008;-73
2022/06/27 01:10:50;;;;;;;0.98;0.43;;;21.00;65.20;;;;;;6163955;23;20035;-73
2022/06/27 01:13:16;;;;;;;2.63;0.40;;;21.00;65.30;;;;;;6163200;23;20005;-73
2022/06/27 01:15:42;;;;;;;1.55;0.80;;;21.00;65.20;;;;;;6214242;23;20323;-73
2022/06/27 01:18:08;;;;;;;1.85;0.60;;;21.00;65.30;;;;;;6187744;23;20000;-73
2022/06/27 01:20:34;;;;;;;0.60;0.30;;;21.00;65.30;;;;;;6162879;23;20005;-72
2022/06/27 01:23:00;;;;;;;3.33;0.60;;;21.00;65.30;;;;;;6163291;23;20001;-72
2022/06/27 01:25:26;;;;;;;2.58;0.47;;;21.00;65.30;;;;;;6187871;23;20005;-73
2022/06/27 01:27:52;;;;;;;1.75;0.40;;;21.00;65.30;;;;;;6214369;23;20005;-73
2022/06/27 01:30:18;;;;;;;1.02;0.43;;;21.00;65.30;;;;;;6187792;23;20028;-73
2022/06/27 01:32:44;;;;;;;1.75;0.40;;;21.00;65.30;;;;;;6164001;23;20024;-73
2022/06/27 01:35:10;;;;;;;1.17;0.40;;;21.00;65.30;;;;;;6215766;23;20670;-72
2022/06/27 01:37:35;;;;;;;2.83;0.50;;;21.00;65.40;;;;;;6189375;23;20043;-72
2022/06/27 01:40:01;;;;;;;1.08;0.60;;;21.00;65.40;;;;;;6189600;23;20001;-72
2022/06/27 01:42:27;;;;;;;0.80;0.30;;;21.00;65.40;;;;;;6164679;23;20028;-72
2022/06/27 01:44:53;;;;;;;4.15;0.63;;;21.00;65.40;;;;;;6189321;23;20378;-73
2022/06/27 01:47:18;;;;;;;1.23;0.57;;;21.00;65.40;;;;;;6189576;23;20005;-73
2022/06/27 01:49:44;;;;;;;1.17;0.55;;;21.00;65.40;;;;;;6215842;23;20366;-72
2022/06/27 01:52:12;;;;;;;0.85;0.45;;;21.00;65.40;;;;;;6189523;23;20060;-72
2022/06/27 01:54:37;;;;;;;0.95;0.40;;;21.00;65.40;;;;;;6164742;23;20392;-73
2022/06/27 01:57:04;;;;;;;2.13;0.45;;;21.00;65.40;;;;;;6215674;23;20005;-72
2022/06/27 01:59:30;;;;;;;0.70;0.30;;;21.00;65.40;;;;;;6215574;23;20000;-72
2022/06/27 02:01:58;;;;;;;1.80;0.38;;;21.00;65.40;;;;;;6164791;23;20050;-72
2022/06/27 02:04:24;;;;;;;1.05;0.60;;;21.00;65.40;;;;;;6165155;23;20047;-72
2022/06/27 02:06:50;;;;;;;0.57;0.30;;;21.00;65.40;;;;;;6215841;23;20004;-72
2022/06/27 02:09:16;;;;;;;0.60;0.20;;;21.00;65.40;;;;;;6164576;23;20028;-73
2022/06/27 02:11:43;;;;;;;1.13;0.30;;;21.00;65.40;;;;;;6189315;23;20059;-72
2022/06/27 02:14:08;;;;;;;1.45;0.43;;;21.00;65.40;;;;;;6164721;23;20083;-73
2022/06/27 02:16:34;;;;;;;3.08;0.80;;;21.00;65.40;;;;;;6215300;23;20055;-72
2022/06/27 02:19:00;;;;;;;2.50;0.43;;;21.00;65.40;;;;;;6189292;23;20330;-73
2022/06/27 02:21:26;;;;;;;1.48;0.50;;;21.00;65.40;;;;;;6189095;23;20070;-73
2022/06/27 02:23:53;;;;;;;1.55;0.50;;;21.00;65.40;;;;;;6215359;23;20127;-73
2022/06/27 02:26:24;;;;;;;0.60;0.45;;;21.00;65.40;;;;;;6215479;23;20005;-73
2022/06/27 02:28:50;;;;;;;0.82;0.43;;;21.00;65.40;;;;;;6188982;23;20000;-73
2022/06/27 02:31:16;;;;;;;0.88;0.47;;;21.00;65.40;;;;;;6215622;23;20004;-73
2022/06/27 02:33:43;;;;;;;0.52;0.32;;;21.00;65.40;;;;;;6215349;23;20346;-72
2022/06/27 02:36:15;;;;;;;0.80;0.40;;;20.90;65.30;;;;;;6164203;23;20020;-72
2022/06/27 02:38:41;;;;;;;1.67;0.60;;;21.00;65.40;;;;;;6215390;23;19996;-72
2022/06/27 02:41:08;;;;;;;5.80;0.68;;;21.00;65.40;;;;;;6188865;23;20668;-72
2022/06/27 02:43:34;;;;;;;2.28;0.45;;;21.00;65.40;;;;;;6188663;23;20005;-72
2022/06/27 02:45:59;;;;;;;1.30;0.28;;;20.90;65.30;;;;;;6189103;23;20341;-73
2022/06/27 02:48:26;;;;;;;1.45;0.22;;;20.90;65.30;;;;;;6188565;23;20004;-72
2022/06/27 02:50:54;;;;;;;1.10;0.43;;;20.90;65.30;;;;;;6164266;23;20080;-72
2022/06/27 02:53:25;;;;;;;2.22;0.38;;;20.90;65.30;;;;;;6188888;23;20058;-72
2022/06/27 02:55:52;;;;;;;2.25;0.40;;;21.00;65.40;;;;;;6188726;23;20005;-72
2022/06/27 02:58:33;;;;;;;0.75;0.38;;;20.90;65.30;;;;;;6164040;23;20004;-72
2022/06/27 03:00:59;;;;;;;1.65;0.60;;;20.90;65.30;;;;;;6165167;23;20131;-72
2022/06/27 03:03:25;;;;;;;1.02;0.50;;;20.90;65.30;;;;;;6163942;23;20460;-73
2022/06/27 03:05:54;;;;;;;0.52;0.30;;;20.90;65.30;;;;;;6163966;23;20008;-73
2022/06/27 03:08:20;;;;;;;2.72;0.40;;;20.90;65.30;;;;;;6215228;23;20005;-72
2022/06/27 03:10:45;;;;;;;0.90;0.50;;;20.90;65.30;;;;;;6188668;23;20028;-73
2022/06/27 03:13:12;;;;;;;2.08;0.52;;;20.90;65.40;;;;;;6214908;23;20100;-73
2022/06/27 03:15:38;;;;;;;0.93;0.40;;;20.90;65.30;;;;;;6163708;23;20011;-73
2022/06/27 03:18:03;;;;;;;1.20;0.40;;;20.90;65.30;;;;;;6215148;23;20075;-73
2022/06/27 03:20:29;;;;;;;0.50;0.38;;;20.90;65.40;;;;;;6215146;23;20314;-73
2022/06/27 03:22:55;;;;;;;1.60;0.40;;;20.90;65.40;;;;;;6163898;23;20005;-73
2022/06/27 03:25:20;;;;;;;0.98;0.40;;;20.90;65.40;;;;;;6215005;23;20506;-73
2022/06/27 03:27:46;;;;;;;2.33;0.52;;;20.90;65.40;;;;;;6188050;23;19997;-73
2022/06/27 03:30:12;;;;;;;2.42;0.50;;;20.90;65.40;;;;;;6188324;23;19997;-73
2022/06/27 03:32:37;;;;;;;2.65;0.47;;;20.90;65.40;;;;;;6215174;23;19997;-73
2022/06/27 03:35:03;;;;;;;3.17;0.40;;;20.90;65.40;;;;;;6188587;23;20005;-73
2022/06/27 03:37:29;;;;;;;0.90;0.68;;;20.90;65.40;;;;;;6214427;23;20017;-73
2022/06/27 03:39:54;;;;;;;1.02;0.40;;;20.90;65.50;;;;;;6163299;23;20001;-73
2022/06/27 03:42:20;;;;;;;0.50;0.30;;;20.90;65.50;;;;;;6214253;23;19997;-73
2022/06/27 03:44:46;;;;;;;1.58;0.40;;;20.90;65.50;;;;;;6138819;23;20076;-73
2022/06/27 03:47:11;;;;;;;2.17;0.47;;;20.90;65.50;;;;;;6188310;23;20433;-73
2022/06/27 03:52:21;;;;;;;2.15;0.90;;;20.90;65.50;;;;;;6192104;23;20015;-73
2022/06/27 03:54:46;;;;;;;0.85;0.50;;;20.90;65.50;;;;;;6214231;23;20290;-73
2022/06/27 03:57:12;;;;;;;1.42;0.40;;;20.90;65.50;;;;;;6214357;23;20004;-72
2022/06/27 03:59:37;;;;;;;2.00;0.40;;;20.90;65.50;;;;;;6214593;23;19997;-72
2022/06/27 04:02:03;;;;;;;1.25;0.40;;;20.90;65.40;;;;;;6214762;23;19997;-72
2022/06/27 04:04:29;;;;;;;1.52;0.50;;;20.80;65.40;;;;;;6163109;23;19996;-72
2022/06/27 04:06:54;;;;;;;0.80;0.30;;;20.80;65.40;;;;;;6214493;23;20001;-73
2022/06/27 04:09:20;;;;;;;1.17;0.40;;;20.80;65.40;;;;;;6214638;23;20000;-72
2022/06/27 04:11:46;;;;;;;2.22;0.50;;;20.90;65.50;;;;;;6187804;23;20506;-72
2022/06/27 04:14:11;;;;;;;1.83;0.45;;;20.90;65.50;;;;;;6214750;23;20000;-73
2022/06/27 04:16:37;;;;;;;3.92;0.40;;;20.90;65.50;;;;;;6214409;23;20039;-73
2022/06/27 04:19:03;;;;;;;0.68;0.28;;;20.80;65.40;;;;;;6188044;23;20008;-73
2022/06/27 04:21:28;;;;;;;1.30;0.52;;;20.80;65.40;;;;;;6214597;23;20115;-72
2022/06/27 04:23:54;;;;;;;1.13;0.30;;;20.80;65.50;;;;;;6163035;23;20377;-72
2022/06/27 04:26:19;;;;;;;3.35;1.08;;;20.80;65.40;;;;;;6214397;23;20000;-73
2022/06/27 04:28:45;;;;;;;0.60;0.40;;;20.80;65.50;;;;;;6214480;23;20009;-73
2022/06/27 04:31:11;;;;;;;1.48;0.38;;;20.80;65.50;;;;;;6214435;23;20008;-73
2022/06/27 04:33:37;;;;;;;0.80;0.57;;;20.80;65.50;;;;;;6214267;23;20388;-73
2022/06/27 04:36:02;;;;;;;2.90;0.30;;;20.80;65.50;;;;;;6214356;23;20035;-73
2022/06/27 04:38:29;;;;;;;1.25;0.63;;;20.80;65.50;;;;;;6187924;23;20507;-73
2022/06/27 04:40:54;;;;;;;1.48;0.45;;;20.80;65.50;;;;;;6214112;23;19997;-73
2022/06/27 04:43:21;;;;;;;0.88;0.30;;;20.80;65.50;;;;;;6188036;23;20050;-73
2022/06/27 04:45:47;;;;;;;3.03;0.60;;;20.80;65.50;;;;;;6214399;23;20051;-73
2022/06/27 04:48:14;;;;;;;0.43;0.25;;;20.80;65.50;;;;;;6214582;23;20009;-73
2022/06/27 04:50:40;;;;;;;1.60;0.50;;;20.80;65.50;;;;;;6214578;23;20435;-73
2022/06/27 04:53:06;;;;;;;0.47;0.47;;;20.80;65.50;;;;;;6214390;23;20000;-73
2022/06/27 04:55:32;;;;;;;1.05;0.50;;;20.80;65.50;;;;;;6213941;23;20008;-73
2022/06/27 04:57:58;;;;;;;1.23;0.28;;;20.80;65.50;;;;;;6188210;23;20001;-73
2022/06/27 05:00:24;;;;;;;3.80;0.40;;;20.80;65.50;;;;;;6214546;23;20007;-73
2022/06/27 05:02:50;;;;;;;1.10;0.47;;;20.80;65.50;;;;;;6163257;23;20000;-73
2022/06/27 05:05:15;;;;;;;0.52;0.30;;;20.80;65.50;;;;;;6188088;23;20001;-72
2022/06/27 05:07:43;;;;;;;1.30;0.52;;;20.80;65.50;;;;;;6216041;23;20001;-72
2022/06/27 05:10:09;;;;;;;2.20;0.43;;;20.80;65.50;;;;;;6216087;23;20039;-73
2022/06/27 05:12:34;;;;;;;1.23;0.30;;;20.80;65.50;;;;;;6189752;23;20028;-73
2022/06/27 05:15:00;;;;;;;1.02;0.47;;;20.80;65.50;;;;;;6189895;23;20001;-72
2022/06/27 05:17:26;;;;;;;0.88;0.30;;;20.80;65.50;;;;;;6216106;23;20433;-72
2022/06/27 05:19:52;;;;;;;1.80;0.38;;;20.80;65.50;;;;;;6215542;23;20004;-72
2022/06/27 05:22:18;;;;;;;1.17;0.32;;;20.80;66.60;;;;;;6215057;23;20001;-72
2022/06/27 05:24:43;;;;;;;2.97;0.30;;;20.70;65.50;;;;;;6163988;23;20035;-72
2022/06/27 05:27:09;;;;;;;1.08;0.30;;;20.80;65.60;;;;;;6188824;23;20433;-72
2022/06/27 05:29:36;;;;;;;0.73;0.40;;;20.80;65.60;;;;;;6215155;23;20586;-72
2022/06/27 05:32:02;;;;;;;0.68;0.55;;;20.80;65.80;;;;;;6188710;23;20004;-73
2022/06/27 05:34:27;;;;;;;1.20;0.40;;;20.80;65.70;;;;;;6188658;23;20004;-72
2022/06/27 05:36:53;;;;;;;1.00;0.35;;;20.70;65.70;;;;;;6188049;23;20055;-73
2022/06/27 05:39:22;;;;;;;1.17;0.52;;;20.80;65.70;;;;;;6215029;23;20039;-73
2022/06/27 05:41:48;;;;;;;1.73;0.60;;;20.80;64.30;;;;;;6163464;23;20084;-73
2022/06/27 05:44:14;;;;;;;3.83;1.10;;;20.70;63.80;;;;;;6188244;23;20036;-73
2022/06/27 05:46:41;;;;;;;2.10;0.63;;;20.60;63.30;;;;;;6214086;23;20129;-73
2022/06/27 05:49:08;;;;;;;3.13;0.60;;;20.60;63.10;;;;;;6188365;23;20015;-73
2022/06/27 05:51:39;;;;;;;1.45;0.70;;;20.50;62.70;;;;;;6214359;23;20008;-73
2022/06/27 05:54:05;;;;;;;4.00;0.75;;;20.50;62.50;;;;;;6214783;23;20007;-73
2022/06/27 05:56:31;;;;;;;1.77;0.60;;;20.50;62.50;;;;;;6214528;23;20448;-73
2022/06/27 05:58:57;;;;;;;1.85;0.70;;;20.50;62.30;;;;;;6163139;23;19997;-73
2022/06/27 06:01:23;;;;;;;2.90;0.70;;;20.40;62.20;;;;;;6188548;23;19996;-73
2022/06/27 06:03:49;;;;;;;1.63;0.60;;;20.40;61.90;;;;;;6214524;23;19997;-73
2022/06/27 06:06:16;;;;;;;2.70;1.10;;;20.40;61.80;;;;;;6214430;23;20004;-73
2022/06/27 06:08:43;;;;;;;1.10;0.63;;;20.30;61.80;;;;;;6214538;23;20016;-73
2022/06/27 06:11:13;;;;;;;4.82;0.60;;;20.30;61.70;;;;;;6188089;23;20001;-73
2022/06/27 06:13:41;;;;;;;3.47;0.70;;;20.30;61.70;;;;;;6214511;23;20000;-73
2022/06/27 06:16:10;;;;;;;2.05;0.80;;;20.30;61.70;;;;;;6214515;23;20011;-73
2022/06/27 06:18:36;;;;;;;3.38;0.73;;;20.30;61.60;;;;;;6187509;23;20360;-73
2022/06/27 06:21:01;;;;;;;2.20;0.60;;;20.30;61.60;;;;;;6187781;23;20068;-73
2022/06/27 06:23:27;;;;;;;0.90;0.45;;;20.20;62.20;;;;;;6214406;23;20353;-73
2022/06/27 06:25:53;;;;;;;2.13;0.80;;;20.30;61.80;;;;;;6163130;23;20001;-73
2022/06/27 06:28:18;;;;;;;2.63;0.80;;;20.20;61.80;;;;;;6214479;23;20072;-73
2022/06/27 06:30:44;;;;;;;3.10;0.80;;;20.20;61.90;;;;;;6214144;23;20136;-73
2022/06/27 06:33:11;;;;;;;1.92;0.60;;;20.20;61.90;;;;;;6187906;23;20075;-73
2022/06/27 06:35:37;;;;;;;2.10;0.65;;;20.20;62.00;;;;;;6213907;23;20004;-73
2022/06/27 06:38:03;;;;;;;3.20;0.80;;;20.20;62.00;;;;;;6182585;23;20040;-73
2022/06/27 06:40:29;;;;;;;1.35;0.50;;;20.20;62.10;;;;;;6158087;23;20008;-73
2022/06/27 06:42:57;;;;;;;2.28;0.68;;;20.10;62.20;;;;;;6158017;23;20024;-73
2022/06/27 06:45:24;;;;;;;1.13;0.47;;;20.20;62.20;;;;;;6182815;23;20124;-74
2022/06/27 06:47:51;;;;;;;2.90;0.82;;;20.20;62.30;;;;;;6184129;23;20020;-73
2022/06/27 06:50:18;;;;;;;3.25;1.00;;;20.20;62.40;;;;;;6181773;23;19997;-74
2022/06/27 06:52:49;;;;;;;1.77;0.77;;;20.20;62.70;;;;;;6181888;23;20484;-74
2022/06/27 06:55:16;;;;;;;2.85;0.60;;;20.20;63.20;;;;;;6181868;23;20002;-73
2022/06/27 06:57:42;;;;;;;3.50;0.60;;;20.20;63.70;;;;;;6182398;23;20027;-73
2022/06/27 07:00:08;;;;;;;2.05;0.60;;;20.10;63.70;;;;;;6182551;23;20438;-74
2022/06/27 07:02:34;;;;;;;3.40;0.77;;;20.10;63.90;;;;;;6158166;23;20001;-73
2022/06/27 07:05:02;;;;;;;1.92;0.60;;;20.10;64.00;;;;;;6156963;23;19997;-74
2022/06/27 07:07:28;;;;;;;1.50;0.60;;;20.10;64.00;;;;;;6183588;23;20005;-74
2022/06/27 07:09:54;;;;;;;3.10;0.82;;;20.00;64.20;;;;;;6183511;23;20107;-73
2022/06/27 07:12:20;;;;;;;2.65;0.60;;;20.10;64.30;;;;;;6158661;23;20385;-74
2022/06/27 07:14:45;;;;;;;3.20;0.60;;;20.10;64.50;;;;;;6158629;23;20001;-74
2022/06/27 07:17:14;;;;;;;1.13;0.40;;;20.00;64.40;;;;;;6183385;23;20001;-74
2022/06/27 07:19:43;;;;;;;4.75;0.77;;;20.00;64.50;;;;;;6183111;23;20437;-74
2022/06/27 07:22:08;;;;;;;2.13;0.85;;;20.00;64.40;;;;;;6184956;23;20005;-74
2022/06/27 07:24:34;;;;;;;2.60;0.63;;;20.00;64.50;;;;;;6184901;23;20005;-74
2022/06/27 07:27:00;;;;;;;1.55;0.52;;;20.00;64.50;;;;;;6184585;23;20445;-74
2022/06/27 07:29:29;;;;;;;3.25;0.75;;;20.00;64.50;;;;;;6184583;23;20001;-74
2022/06/27 07:31:55;;;;;;;2.47;0.80;;;19.90;64.30;;;;;;6183244;23;20016;-74
2022/06/27 07:34:22;;;;;;;2.35;0.60;;;19.90;64.30;;;;;;6184525;23;20005;-74
2022/06/27 07:36:50;;;;;;;4.10;0.93;;;19.90;64.40;;;;;;6198327;23;20445;-74
2022/06/27 07:39:16;;;;;;;1.88;0.70;;;19.90;64.20;;;;;;6188942;23;19997;-74
2022/06/27 07:41:42;;;;;;;2.75;0.70;;;19.90;64.20;;;;;;6188181;23;19997;-73
2022/06/27 07:44:10;;;;;;;1.58;0.60;;;19.90;64.10;;;;;;6214752;23;20000;-74
2022/06/27 07:46:35;;;;;;;3.40;1.02;;;19.90;63.90;;;;;;6188851;23;20040;-74
2022/06/27 07:49:01;;;;;;;3.13;0.57;;;19.90;64.00;;;;;;6214329;23;20349;-74
2022/06/27 07:51:27;;;;;;;1.48;0.40;;;19.80;63.90;;;;;;6214839;23;20004;-74
2022/06/27 07:53:53;;;;;;;3.67;0.90;;;19.80;63.80;;;;;;6214620;23;20011;-74
2022/06/27 07:56:20;;;;;;;1.80;0.70;;;19.80;64.00;;;;;;6214272;23;20001;-74
2022/06/27 07:58:46;;;;;;;2.78;0.68;;;19.80;64.00;;;;;;6188819;23;20318;-73
2022/06/27 08:01:14;;;;;;;3.70;0.65;;;19.70;63.50;;;;;;6188115;23;20058;-73
2022/06/27 08:03:40;;;;;;;2.92;0.55;;;19.70;63.60;;;;;;6188389;23;20325;-74
2022/06/27 08:06:12;;;;;;;3.08;0.65;;;19.70;63.60;;;;;;6188022;23;20001;-74
2022/06/27 08:08:41;;;;;;;4.17;0.77;;;19.60;63.70;;;;;;6214686;23;20042;-74
2022/06/27 08:11:09;;;;;;;1.83;0.52;;;19.60;63.70;;;;;;6163875;23;20459;-74
2022/06/27 08:13:35;;;;;;;2.63;0.68;;;19.70;63.70;;;;;;6188250;23;20005;-74
2022/06/27 08:16:01;;;;;;;2.53;0.68;;;19.70;63.70;;;;;;6214431;23;20039;-74
2022/06/27 08:18:28;;;;;;;2.80;0.60;;;19.70;63.70;;;;;;6187909;23;20329;-74
2022/06/27 08:20:54;;;;;;;1.73;0.52;;;19.70;63.70;;;;;;6188432;23;19996;-74
2022/06/27 08:23:20;;;;;;;2.25;0.52;;;19.70;63.60;;;;;;6188304;23;20003;-74
2022/06/27 08:25:47;;;;;;;2.53;0.75;;;19.60;63.40;;;;;;6187890;23;20013;-74
2022/06/27 08:28:14;;;;;;;3.03;0.75;;;19.60;63.20;;;;;;6164110;23;20732;-73
2022/06/27 08:30:41;;;;;;;1.98;0.73;;;19.50;62.70;;;;;;6163897;23;20004;-74
2022/06/27 08:33:07;;;;;;;2.35;0.57;;;19.50;62.60;;;;;;6188372;23;20028;-74
2022/06/27 08:35:32;;;;;;;4.03;1.00;;;19.50;62.70;;;;;;6188026;23;20341;-74
2022/06/27 08:37:58;;;;;;;2.90;0.50;;;19.50;62.50;;;;;;6214445;23;20024;-74
2022/06/27 08:40:25;;;;;;;2.70;0.70;;;19.40;62.50;;;;;;6188035;23;20005;-73
2022/06/27 08:42:52;;;;;;;2.92;0.90;;;19.50;62.80;;;;;;6165515;23;20384;-74
2022/06/27 08:45:23;;;;;;;1.35;0.50;;;19.50;62.60;;;;;;6190365;23;20051;-73
2022/06/27 08:47:50;;;;;;;2.22;0.40;;;19.50;62.40;;;;;;6167077;23;20007;-74
2022/06/27 08:50:16;;;;;;;3.78;0.50;;;19.50;61.90;;;;;;6190177;23;20008;-74
2022/06/27 08:52:42;;;;;;;1.23;0.60;;;19.40;61.40;;;;;;6190413;23;19996;-74
2022/06/27 08:55:11;;;;;;;2.15;0.43;;;19.40;61.80;;;;;;6216319;23;20008;-74
2022/06/27 08:57:39;;;;;;;1.95;0.60;;;19.40;61.80;;;;;;6189636;23;20008;-74
2022/06/27 09:00:06;;;;;;;0.93;0.40;;;19.40;61.70;;;;;;6189989;23;20020;-74
2022/06/27 09:02:42;;;;;;;1.77;0.55;;;19.40;61.80;;;;;;6189820;23;20437;-74
2022/06/27 09:05:28;;;;;;;1.67;0.50;;;19.40;61.70;;;;;;6191129;23;20001;-74
2022/06/27 09:07:55;;;;;;;0.93;0.47;;;19.40;61.60;;;;;;6215842;23;20008;-74
2022/06/27 09:10:35;;;;;;;1.48;0.50;;;19.40;61.80;;;;;;6165235;23;20406;-74
2022/06/27 09:13:12;;;;;;;1.50;0.40;;;19.50;61.90;;;;;;6189675;23;20060;-74
2022/06/27 09:15:47;;;;;;;3.25;0.60;;;19.40;61.70;;;;;;6215898;23;20032;-73
2022/06/27 09:18:17;;;;;;;1.13;0.52;;;19.40;61.60;;;;;;6216017;23;20054;-74
2022/06/27 09:20:50;;;;;;;1.20;0.57;;;19.50;61.80;;;;;;6216410;23;20452;-74
2022/06/27 09:23:53;;;;;;;1.88;0.60;;;19.50;61.90;;;;;;6190164;23;20004;-74
2022/06/27 09:26:25;;;;;;;2.50;0.32;;;19.50;61.90;;;;;;6215980;23;20467;-74
2022/06/27 09:28:54;;;;;;;1.35;0.50;;;19.50;61.90;;;;;;6189705;23;20380;-74
2022/06/27 09:31:26;;;;;;;2.50;0.40;;;19.50;61.90;;;;;;6216310;23;20012;-74
2022/06/27 09:34:09;;;;;;;1.27;0.50;;;19.40;61.50;;;;;;6216151;23;20027;-74
2022/06/27 09:36:36;;;;;;;2.38;0.35;;;19.40;61.70;;;;;;6189895;23;20036;-74
2022/06/27 09:39:07;;;;;;;1.45;0.43;;;19.30;61.80;;;;;;6189647;23;20001;-74
2022/06/27 09:41:33;;;;;;;2.05;0.43;;;19.30;62.10;;;;;;6166145;23;20024;-74
2022/06/27 09:44:10;;;;;;;4.32;0.82;;;19.20;62.80;;;;;;6189586;23;20448;-74
2022/06/27 09:46:38;;;;;;;2.67;0.55;;;19.20;63.50;;;;;;6216133;23;20088;-74
2022/06/27 09:49:06;;;;;;;1.33;0.52;;;19.20;63.80;;;;;;6189777;23;20388;-74
2022/06/27 09:51:34;;;;;;;1.90;0.63;;;19.20;63.20;;;;;;6164882;23;20004;-74
2022/06/27 09:54:08;;;;;;;1.48;0.43;;;19.20;63.30;;;;;;6189600;23;20005;-74
2022/06/27 09:56:35;;;;;;;1.52;0.30;;;19.20;63.50;;;;;;6167510;23;20011;-74
2022/06/27 09:59:01;;;;;;;2.58;0.50;;;19.20;63.50;;;;;;6189434;23;19996;-74
2022/06/27 10:01:28;;;;;;;1.95;0.60;;;19.30;63.50;;;;;;6164679;23;20007;-74
2022/06/27 10:03:54;;;;;;;0.90;0.43;;;19.30;63.50;;;;;;6215894;23;20001;-74
2022/06/27 10:06:20;;;;;;;1.55;0.38;;;19.30;63.50;;;;;;6164602;23;20005;-74
2022/06/27 10:08:46;;;;;;;0.98;0.35;;;19.30;63.40;;;;;;6164641;23;20326;-74
2022/06/27 10:11:12;;;;;;;1.00;0.38;;;19.30;63.50;;;;;;6189270;23;20028;-74
2022/06/27 10:13:44;;;;;;;1.30;0.30;;;19.40;63.50;;;;;;6215427;23;20341;-74
2022/06/27 10:16:14;;;;;;;1.27;0.30;;;19.40;63.70;;;;;;6189654;23;20024;-74
2022/06/27 10:19:02;;;;;;;2.25;0.40;;;19.30;63.90;;;;;;6189250;23;19997;-74
2022/06/27 10:21:30;;;;;;;0.98;0.40;;;19.30;64.10;;;;;;6189442;23;20007;-74
2022/06/27 10:24:24;;;;;;;1.05;0.38;;;19.30;64.20;;;;;;6189205;23;20000;-74
2022/06/27 10:26:54;;;;;;;1.08;0.50;;;19.40;64.00;;;;;;6215412;23;20441;-74
2022/06/27 10:29:28;;;;;;;0.55;0.40;;;19.40;64.50;;;;;;6215509;23;20008;-74
2022/06/27 10:31:55;;;;;;;1.58;0.60;;;19.40;64.50;;;;;;6215309;23;20054;-74
2022/06/27 10:34:46;;;;;;;1.27;0.40;;;19.40;64.60;;;;;;6164209;23;20004;-74
2022/06/27 10:37:24;;;;;;;1.55;0.40;;;19.40;64.50;;;;;;6215042;23;20088;-74
2022/06/27 10:39:54;;;;;;;0.73;0.20;;;19.40;64.40;;;;;;6215463;23;20433;-74
2022/06/27 10:42:54;;;;;;;2.15;0.40;;;19.40;64.30;;;;;;6163618;23;20380;-74
2022/06/27 10:45:20;;;;;;;1.48;0.35;;;19.40;64.30;;;;;;6188631;23;20067;-74
2022/06/27 10:47:52;;;;;;;0.47;0.30;;;19.40;64.40;;;;;;6215363;23;20074;-74
2022/06/27 10:50:19;;;;;;;0.50;0.20;;;19.40;64.20;;;;;;6188880;23;20005;-74
2022/06/27 10:52:45;;;;;;;0.60;0.28;;;19.40;64.20;;;;;;6164336;23;20000;-74
2022/06/27 10:55:31;;;;;;;1.30;0.40;;;19.40;64.30;;;;;;6188823;23;20008;-74
2022/06/27 10:57:57;;;;;;;3.70;0.55;;;19.30;64.10;;;;;;6214479;23;20039;-73
2022/06/27 11:00:39;;;;;;;3.72;0.77;;;19.30;64.60;;;;;;6163982;23;20000;-74
2022/06/27 11:03:06;;;;;;;0.45;0.20;;;19.20;64.10;;;;;;6188824;23;20000;-74
2022/06/27 11:05:55;;;;;;;0.77;0.30;;;19.10;63.30;;;;;;6188654;23;20451;-74
2022/06/27 11:08:22;;;;;;;1.17;0.38;;;19.00;63.40;;;;;;6215021;23;20000;-74
2022/06/27 11:10:48;;;;;;;0.93;0.47;;;19.10;63.70;;;;;;6164208;23;20362;-74
2022/06/27 11:13:52;;;;;;;1.70;0.35;;;19.10;63.90;;;;;;6188327;23;20023;-74
2022/06/27 11:16:20;;;;;;;1.70;0.35;;;19.10;63.80;;;;;;6214897;23;20010;-74
2022/06/27 11:18:51;;;;;;;1.52;0.50;;;19.20;63.90;;;;;;6215182;23;20067;-74
2022/06/27 11:21:18;;;;;;;0.30;0.20;;;19.20;63.90;;;;;;6188340;23;20005;-74
2022/06/27 11:23:59;;;;;;;1.15;0.32;;;19.30;63.90;;;;;;6189045;23;20029;-74
2022/06/27 11:26:28;;;;;;;1.33;0.40;;;19.20;64.00;;;;;;6214414;23;20005;-74
2022/06/27 11:34:24;;;;;;;1.00;0.38;;;19.30;64.20;;;;;;6214804;23;20463;-74
2022/06/27 11:36:50;;;;;;;1.00;0.38;;;19.30;64.10;;;;;;6164480;23;20032;-74
2022/06/27 11:39:22;;;;;;;1.48;0.30;;;19.30;64.30;;;;;;6163756;23;20005;-73
2022/06/27 11:41:48;;;;;;;0.95;0.25;;;19.30;64.30;;;;;;6189426;23;20000;-74
2022/06/27 11:44:14;;;;;;;0.57;0.40;;;19.30;64.50;;;;;;6163520;23;20071;-74
2022/06/27 11:46:45;;;;;;;1.98;0.50;;;19.40;64.50;;;;;;6214729;23;20005;-74
2022/06/27 11:49:13;;;;;;;2.17;0.40;;;19.30;64.60;;;;;;6188786;23;20055;-74
2022/06/27 11:51:40;;;;;;;3.03;0.57;;;19.40;64.60;;;;;;6163717;23;20001;-74
2022/06/27 11:54:10;;;;;;;1.27;0.32;;;19.30;64.70;;;;;;6188310;23;20008;-74
2022/06/27 11:56:41;;;;;;;1.08;0.30;;;19.40;64.70;;;;;;6188078;23;20008;-74
2022/06/27 11:59:08;;;;;;;1.48;0.40;;;19.40;64.70;;;;;;6189082;23;20433;-74
2022/06/27 12:01:57;;;;;;;1.63;0.45;;;19.30;64.80;;;;;;6188105;23;20000;-74
2022/06/27 12:04:30;;;;;;;0.63;0.30;;;19.30;64.60;;;;;;6191807;23;20005;-74
2022/06/27 12:07:07;;;;;;;1.60;0.38;;;19.30;64.40;;;;;;6163510;23;20426;-74
2022/06/27 12:09:49;;;;;;;1.33;0.30;;;19.20;64.60;;;;;;6188150;23;20000;-74
2022/06/27 12:12:19;;;;;;;1.00;0.30;;;19.10;64.00;;;;;;6140820;23;20004;-74
2022/06/27 12:14:45;;;;;;;1.52;0.80;;;19.10;64.20;;;;;;6188124;23;20197;-74
2022/06/27 12:17:11;;;;;;;2.05;0.40;;;19.10;64.10;;;;;;6187852;23;20070;-74
2022/06/27 12:19:37;;;;;;;1.40;0.32;;;19.10;63.80;;;;;;6188030;23;20071;-74
2022/06/27 12:22:02;;;;;;;0.90;0.40;;;19.20;64.00;;;;;;6214616;23;19997;-74
2022/06/27 12:24:28;;;;;;;1.85;0.30;;;19.20;64.00;;;;;;6214156;23;20072;-74
2022/06/27 12:26:54;;;;;;;1.50;0.60;;;19.20;64.00;;;;;;6214606;23;20063;-74
2022/06/27 12:29:19;;;;;;;0.90;0.30;;;19.20;64.00;;;;;;6214523;23;20004;-74
2022/06/27 12:31:45;;;;;;;0.95;0.38;;;19.20;64.10;;;;;;6214588;23;20471;-74
2022/06/27 12:34:11;;;;;;;1.02;0.38;;;19.20;64.00;;;;;;6188155;23;20051;-73
2022/06/27 12:36:36;;;;;;;1.23;0.30;;;19.20;64.00;;;;;;6187631;23;20079;-74
2022/06/27 12:39:03;;;;;;;0.90;0.40;;;19.30;64.30;;;;;;6163003;23;20456;-74
2022/06/27 12:41:28;;;;;;;0.90;0.20;;;19.30;64.30;;;;;;6187992;23;20000;-74
2022/06/27 12:43:54;;;;;;;0.90;0.28;;;19.30;64.00;;;;;;6214532;23;20500;-74
2022/06/27 12:46:20;;;;;;;2.28;0.40;;;19.30;64.00;;;;;;6187963;23;20004;-74
2022/06/27 12:48:46;;;;;;;0.40;0.30;;;19.30;63.60;;;;;;6214483;23;20015;-74
2022/06/27 12:51:11;;;;;;;1.67;0.73;;;19.20;63.50;;;;;;6187928;23;20432;-74
2022/06/27 12:53:37;;;;;;;2.28;0.47;;;19.20;63.50;;;;;;6187712;23;20054;-74
2022/06/27 12:56:03;;;;;;;1.50;0.30;;;19.30;63.70;;;;;;6214527;23;20004;-73
2022/06/27 12:58:30;;;;;;;1.85;0.40;;;19.20;63.30;;;;;;6187682;23;20001;-74